createdAt,value
2023-03-04T00:00:46.496Z,101734.40
2023-03-04T00:02:18.444Z,101734.40
2023-03-04T00:03:50.909Z,101729.00
2023-03-04T00:05:22.801Z,101728.20
2023-03-04T00:06:54.764Z,101733.00
2023-03-04T00:08:26.646Z,101728.80
2023-03-04T00:09:58.492Z,101731.40
2023-03-04T00:11:32.987Z,101730.40
2023-03-04T00:13:04.812Z,101733.00
2023-03-04T00:14:36.744Z,101727.80
2023-03-04T00:16:08.754Z,101731.60
2023-03-04T00:17:40.646Z,101729.60
2023-03-04T00:19:12.572Z,101725.20
2023-03-04T00:20:44.509Z,101729.60
2023-03-04T00:22:16.452Z,101724.20
2023-03-04T00:23:48.778Z,101729.00
2023-03-04T00:25:20.591Z,101730.00
2023-03-04T00:26:53.165Z,101727.00
2023-03-04T00:28:25.072Z,101734.20
2023-03-04T00:29:57.609Z,101731.00
2023-03-04T00:31:29.570Z,101728.40
2023-03-04T00:33:01.401Z,101734.80
2023-03-04T00:34:33.909Z,101727.40
2023-03-04T00:36:06.591Z,101729.80
2023-03-04T00:37:38.498Z,101724.00
2023-03-04T00:39:12.434Z,101719.80
2023-03-04T00:40:44.554Z,101718.40
2023-03-04T00:42:16.514Z,101715.40
2023-03-04T00:43:48.486Z,101714.20
2023-03-04T00:45:20.403Z,101714.00
2023-03-04T00:46:52.229Z,101712.60
2023-03-04T00:48:24.112Z,101713.80
2023-03-04T00:49:55.867Z,101714.80
2023-03-04T00:51:27.707Z,101713.20
2023-03-04T00:52:59.662Z,101714.40
2023-03-04T00:54:31.538Z,101712.00
2023-03-04T00:56:03.908Z,101710.80
2023-03-04T00:57:36.096Z,101710.80
2023-03-04T00:59:07.939Z,101707.20
2023-03-04T01:00:39.787Z,101710.20
2023-03-04T01:02:11.770Z,101705.00
2023-03-04T01:03:43.596Z,101703.20
2023-03-04T01:05:15.958Z,101702.00
2023-03-04T01:06:47.940Z,101703.60
2023-03-04T01:08:19.709Z,101705.40
2023-03-04T01:09:51.466Z,101708.80
2023-03-04T01:11:23.737Z,101705.40
2023-03-04T01:12:55.586Z,101704.20
2023-03-04T01:14:27.522Z,101700.80
2023-03-04T01:15:59.509Z,101699.60
2023-03-04T01:17:31.335Z,101698.40
2023-03-04T01:19:03.235Z,101698.80
2023-03-04T01:20:35.353Z,101701.80
2023-03-04T01:22:07.912Z,101700.60
2023-03-04T01:23:39.693Z,101701.80
2023-03-04T01:25:13.912Z,101699.60
2023-03-04T01:26:45.768Z,101695.40
2023-03-04T01:28:17.635Z,101694.20
2023-03-04T01:29:49.406Z,101691.80
2023-03-04T01:31:22.709Z,101694.80
2023-03-04T01:32:56.290Z,101692.80
2023-03-04T01:34:28.059Z,101689.80
2023-03-04T01:36:00.008Z,101690.20
2023-03-04T01:37:31.881Z,101684.20
2023-03-04T01:39:04.786Z,101681.20
2023-03-04T01:40:37.836Z,101684.00
2023-03-04T01:42:21.624Z,101681.60
2023-03-04T01:44:00.787Z,101685.00
2023-03-04T01:45:34.759Z,101686.00
2023-03-04T01:47:06.664Z,101687.80
2023-03-04T01:48:39.585Z,101681.80
2023-03-04T01:50:37.199Z,101686.40
2023-03-04T01:52:14.134Z,101686.40
2023-03-04T01:53:54.865Z,101688.20
2023-03-04T01:55:28.679Z,101685.20
2023-03-04T01:57:00.980Z,101685.20
2023-03-04T01:58:36.059Z,101685.60
2023-03-04T02:00:33.398Z,101685.80
2023-03-04T02:02:05.409Z,101675.60
2023-03-04T02:03:40.861Z,101679.60
2023-03-04T02:05:13.993Z,101677.20
2023-03-04T02:06:47.849Z,101677.40
2023-03-04T02:08:23.768Z,101682.40
2023-03-04T02:09:57.163Z,101680.20
2023-03-04T02:11:29.008Z,101680.00
2023-03-04T02:13:02.998Z,101680.00
2023-03-04T02:14:34.876Z,101677.80
2023-03-04T02:16:07.178Z,101680.60
2023-03-04T02:17:40.172Z,101677.60
2023-03-04T02:19:28.776Z,101678.80
2023-03-04T02:21:33.273Z,101673.40
2023-03-04T02:23:46.309Z,101675.20
2023-03-04T02:25:25.887Z,101677.20
2023-03-04T02:26:57.841Z,101671.60
2023-03-04T02:28:29.669Z,101671.80
2023-03-04T02:30:01.490Z,101669.00
2023-03-04T02:31:39.203Z,101668.40
2023-03-04T02:33:18.845Z,101662.80
2023-03-04T02:34:51.153Z,101667.20
2023-03-04T02:36:24.395Z,101665.40
2023-03-04T02:37:56.231Z,101662.20
2023-03-04T02:39:36.371Z,101662.40
2023-03-04T02:41:16.357Z,101657.20
2023-03-04T02:42:48.220Z,101661.60
2023-03-04T02:44:26.333Z,101662.20
2023-03-04T02:46:00.752Z,101657.60
2023-03-04T02:47:32.641Z,101655.60
2023-03-04T02:49:04.505Z,101657.40
2023-03-04T02:50:52.351Z,101653.80
2023-03-04T02:52:27.003Z,101649.80
2023-03-04T02:53:58.820Z,101647.60
2023-03-04T02:55:30.796Z,101648.40
2023-03-04T02:57:07.698Z,101643.60
2023-03-04T02:58:41.313Z,101644.00
2023-03-04T03:00:14.345Z,101645.20
2023-03-04T03:01:46.888Z,101644.80
2023-03-04T03:03:19.486Z,101647.40
2023-03-04T03:04:52.126Z,101644.00
2023-03-04T03:06:24.416Z,101638.60
2023-03-04T03:07:56.502Z,101640.80
2023-03-04T03:09:28.386Z,101636.00
2023-03-04T03:11:00.905Z,101638.00
2023-03-04T03:12:33.014Z,101641.00
2023-03-04T03:14:05.593Z,101637.40
2023-03-04T03:15:42.170Z,101637.00
2023-03-04T03:17:14.334Z,101639.20
2023-03-04T03:18:46.163Z,101634.40
2023-03-04T03:20:19.250Z,101636.00
2023-03-04T03:21:51.313Z,101633.40
2023-03-04T03:23:24.040Z,101632.80
2023-03-04T03:24:56.987Z,101632.00
2023-03-04T03:26:29.655Z,101628.80
2023-03-04T03:28:02.305Z,101631.00
2023-03-04T03:29:34.201Z,101626.00
2023-03-04T03:31:06.500Z,101626.20
2023-03-04T03:32:38.370Z,101628.60
2023-03-04T03:34:10.235Z,101622.40
2023-03-04T03:35:42.098Z,101627.40
2023-03-04T03:37:14.235Z,101630.00
2023-03-04T03:38:46.023Z,101628.60
2023-03-04T03:40:18.155Z,101624.20
2023-03-04T03:41:50.170Z,101621.60
2023-03-04T03:43:22.060Z,101623.60
2023-03-04T03:44:53.850Z,101622.60
2023-03-04T03:46:25.651Z,101620.20
2023-03-04T03:47:57.553Z,101619.60
2023-03-04T03:49:29.296Z,101625.00
2023-03-04T03:51:02.047Z,101621.00
2023-03-04T03:52:34.029Z,101626.00
2023-03-04T03:54:05.872Z,101620.20
2023-03-04T03:55:39.158Z,101619.60
2023-03-04T03:57:12.055Z,101620.80
2023-03-04T03:58:43.942Z,101616.40
2023-03-04T04:00:17.093Z,101620.80
2023-03-04T04:01:48.941Z,101623.60
2023-03-04T04:03:21.138Z,101618.60
2023-03-04T04:04:52.994Z,101614.80
2023-03-04T04:06:25.024Z,101620.80
2023-03-04T04:07:56.785Z,101615.20
2023-03-04T04:09:28.704Z,101613.40
2023-03-04T04:11:00.669Z,101614.00
2023-03-04T04:12:32.883Z,101607.40
2023-03-04T04:14:06.556Z,101608.20
2023-03-04T04:15:39.387Z,101611.60
2023-03-04T04:17:12.174Z,101613.80
2023-03-04T04:18:44.039Z,101613.80
2023-03-04T04:20:16.065Z,101616.20
2023-03-04T04:21:48.631Z,101614.40
2023-03-04T04:23:20.912Z,101616.00
2023-03-04T04:24:52.798Z,101612.20
2023-03-04T04:26:24.622Z,101613.80
2023-03-04T04:27:56.485Z,101615.60
2023-03-04T04:29:28.302Z,101612.40
2023-03-04T04:31:00.226Z,101614.40
2023-03-04T04:32:32.076Z,101615.80
2023-03-04T04:34:03.922Z,101612.40
2023-03-04T04:35:38.907Z,101611.60
2023-03-04T04:37:11.001Z,101614.00
2023-03-04T04:38:42.880Z,101613.80
2023-03-04T04:40:14.990Z,101613.00
2023-03-04T04:41:46.994Z,101619.80
2023-03-04T04:43:21.115Z,101613.20
2023-03-04T04:44:52.906Z,101615.80
2023-03-04T04:46:24.872Z,101617.20
2023-03-04T04:47:57.476Z,101612.40
2023-03-04T04:49:29.222Z,101608.60
2023-03-04T04:51:00.975Z,101609.00
2023-03-04T04:52:32.895Z,101613.60
2023-03-04T04:54:06.345Z,101617.80
2023-03-04T04:55:38.117Z,101626.80
2023-03-04T04:57:09.988Z,101621.00
2023-03-04T04:58:44.664Z,101623.40
2023-03-04T05:00:19.006Z,101622.40
2023-03-04T05:01:50.788Z,101623.40
2023-03-04T05:03:23.654Z,101625.20
2023-03-04T05:04:55.666Z,101629.60
2023-03-04T05:06:28.347Z,101626.80
2023-03-04T05:08:00.147Z,101630.80
2023-03-04T05:09:31.915Z,101624.80
2023-03-04T05:11:06.220Z,101624.20
2023-03-04T05:12:38.145Z,101623.00
2023-03-04T05:14:09.916Z,101620.80
2023-03-04T05:15:41.733Z,101618.80
2023-03-04T05:17:13.528Z,101623.20
2023-03-04T05:18:45.852Z,101615.60
2023-03-04T05:20:17.669Z,101620.20
2023-03-04T05:21:49.534Z,101616.80
2023-03-04T05:23:21.590Z,101616.40
2023-03-04T05:24:53.398Z,101615.20
2023-03-04T05:26:26.434Z,101614.20
2023-03-04T05:27:58.242Z,101615.80
2023-03-04T05:29:30.014Z,101615.60
2023-03-04T05:31:02.380Z,101611.20
2023-03-04T05:32:34.285Z,101607.40
2023-03-04T05:34:06.229Z,101607.20
2023-03-04T05:35:41.693Z,101611.00
2023-03-04T05:37:13.494Z,101610.40
2023-03-04T05:38:45.240Z,101612.80
2023-03-04T05:40:17.281Z,101609.20
2023-03-04T05:41:49.057Z,101601.40
2023-03-04T05:43:22.914Z,101605.40
2023-03-04T05:44:54.687Z,101608.60
2023-03-04T05:46:26.542Z,101607.60
2023-03-04T05:47:58.466Z,101610.60
2023-03-04T05:49:30.315Z,101620.40
2023-03-04T05:51:02.829Z,101618.60
2023-03-04T05:52:34.586Z,101614.20
2023-03-04T05:54:06.547Z,101614.00
2023-03-04T05:55:38.438Z,101615.80
2023-03-04T05:57:10.297Z,101616.80
2023-03-04T05:58:42.443Z,101612.00
2023-03-04T06:00:16.293Z,101618.20
2023-03-04T06:01:48.493Z,101623.60
2023-03-04T06:03:25.254Z,101619.00
2023-03-04T06:04:57.156Z,101619.20
2023-03-04T06:06:28.886Z,101624.40
2023-03-04T06:08:00.784Z,101623.20
2023-03-04T06:09:33.717Z,101627.40
2023-03-04T06:11:06.802Z,101625.40
2023-03-04T06:12:38.690Z,101620.00
2023-03-04T06:14:10.798Z,101625.60
2023-03-04T06:15:42.667Z,101620.60
2023-03-04T06:17:14.824Z,101626.80
2023-03-04T06:18:48.425Z,101629.20
2023-03-04T06:20:20.253Z,101629.60
2023-03-04T06:21:52.134Z,101637.20
2023-03-04T06:23:26.919Z,101634.20
2023-03-04T06:24:58.843Z,101639.80
2023-03-04T06:26:31.170Z,101641.00
2023-03-04T06:28:03.442Z,101644.20
2023-03-04T06:29:37.303Z,101645.80
2023-03-04T06:31:09.737Z,101645.80
2023-03-04T06:32:44.467Z,101645.60
2023-03-04T06:34:16.318Z,101643.20
2023-03-04T06:35:48.849Z,101640.20
2023-03-04T06:37:22.104Z,101639.80
2023-03-04T06:38:53.877Z,101643.40
2023-03-04T06:40:28.817Z,101642.80
2023-03-04T06:42:01.875Z,101646.20
2023-03-04T06:43:33.991Z,101644.20
2023-03-04T06:45:07.351Z,101646.80
2023-03-04T06:46:39.181Z,101651.00
2023-03-04T06:48:13.927Z,101648.80
2023-03-04T06:49:45.795Z,101652.60
2023-03-04T06:51:18.154Z,101651.80
2023-03-04T06:52:50.135Z,101651.20
2023-03-04T06:54:22.136Z,101655.40
2023-03-04T06:55:54.223Z,101653.40
2023-03-04T06:57:26.095Z,101652.20
2023-03-04T06:58:58.044Z,101653.60
2023-03-04T07:00:29.897Z,101653.40
2023-03-04T07:02:01.851Z,101658.80
2023-03-04T07:03:33.618Z,101658.60
2023-03-04T07:05:06.207Z,101660.00
2023-03-04T07:06:38.954Z,101663.20
2023-03-04T07:08:10.739Z,101658.80
2023-03-04T07:09:42.521Z,101661.20
2023-03-04T07:11:18.816Z,101660.00
2023-03-04T07:12:50.756Z,101661.00
2023-03-04T07:14:24.248Z,101662.00
2023-03-04T07:15:57.776Z,101658.60
2023-03-04T07:17:29.667Z,101661.20
2023-03-04T07:19:04.085Z,101657.60
2023-03-04T07:20:36.898Z,101662.20
2023-03-04T07:22:08.944Z,101669.20
2023-03-04T07:23:41.720Z,101665.60
2023-03-04T07:25:14.628Z,101667.80
2023-03-04T07:26:46.404Z,101666.40
2023-03-04T07:28:18.974Z,101669.80
2023-03-04T07:29:50.740Z,101667.40
2023-03-04T07:31:29.998Z,101669.80
2023-03-04T07:33:01.994Z,101669.20
2023-03-04T07:34:33.877Z,101671.00
2023-03-04T07:36:06.564Z,101670.60
2023-03-04T07:37:40.340Z,101673.40
2023-03-04T07:39:13.862Z,101674.20
2023-03-04T07:40:45.623Z,101675.20
2023-03-04T07:42:17.484Z,101672.60
2023-03-04T07:43:58.907Z,101670.00
2023-03-04T07:45:30.772Z,101664.40
2023-03-04T07:47:02.592Z,101665.40
2023-03-04T07:48:34.639Z,101669.40
2023-03-04T07:50:07.613Z,101670.80
2023-03-04T07:51:39.784Z,101668.00
2023-03-04T07:53:12.393Z,101661.80
2023-03-04T07:54:44.288Z,101664.60
2023-03-04T07:56:25.452Z,101665.00
2023-03-04T07:57:58.660Z,101669.60
2023-03-04T07:59:30.495Z,101669.20
2023-03-04T08:01:10.923Z,101667.60
2023-03-04T08:02:43.046Z,101667.60
2023-03-04T08:04:18.886Z,101668.00
2023-03-04T08:05:51.415Z,101663.00
2023-03-04T08:07:23.771Z,101664.60
2023-03-04T08:09:02.895Z,101666.40
2023-03-04T08:10:34.990Z,101665.40
2023-03-04T08:12:07.095Z,101662.00
2023-03-04T08:13:39.411Z,101668.20
2023-03-04T08:15:11.974Z,101669.40
2023-03-04T08:16:46.009Z,101672.20
2023-03-04T08:18:19.446Z,101670.60
2023-03-04T08:19:51.243Z,101671.20
2023-03-04T08:21:26.850Z,101671.40
2023-03-04T08:22:58.674Z,101675.00
2023-03-04T08:24:30.895Z,101678.60
2023-03-04T08:26:14.283Z,101674.60
2023-03-04T08:27:46.420Z,101678.80
2023-03-04T08:29:31.286Z,101675.60
2023-03-04T08:31:04.186Z,101674.00
2023-03-04T08:32:37.104Z,101675.40
2023-03-04T08:34:11.016Z,101674.40
2023-03-04T08:35:42.862Z,101673.20
2023-03-04T08:37:14.717Z,101670.60
2023-03-04T08:38:47.583Z,101670.20
2023-03-04T08:40:19.922Z,101674.00
2023-03-04T08:41:51.680Z,101672.60
2023-03-04T08:43:26.588Z,101671.20
2023-03-04T08:44:58.364Z,101664.80
2023-03-04T08:46:30.814Z,101668.40
2023-03-04T08:48:02.929Z,101668.40
2023-03-04T08:49:35.020Z,101664.80
2023-03-04T08:51:16.114Z,101668.00
2023-03-04T08:52:48.344Z,101664.60
2023-03-04T08:54:20.123Z,101663.00
2023-03-04T08:55:55.422Z,101670.20
2023-03-04T08:57:32.857Z,101669.20
2023-03-04T08:59:04.865Z,101672.20
2023-03-04T09:00:40.908Z,101668.60
2023-03-04T09:02:12.821Z,101671.40
2023-03-04T09:03:45.180Z,101672.00
2023-03-04T09:05:18.381Z,101673.80
2023-03-04T09:06:50.910Z,101669.40
2023-03-04T09:08:23.835Z,101673.60
2023-03-04T09:09:55.994Z,101677.80
2023-03-04T09:11:27.944Z,101671.60
2023-03-04T09:13:01.134Z,101671.40
2023-03-04T09:14:35.875Z,101673.60
2023-03-04T09:16:14.653Z,101676.40
2023-03-04T09:17:46.650Z,101675.80
2023-03-04T09:19:18.569Z,101667.80
2023-03-04T09:20:52.055Z,101668.60
2023-03-04T09:22:25.276Z,101667.00
2023-03-04T09:23:57.118Z,101674.20
2023-03-04T09:25:29.397Z,101665.80
2023-03-04T09:27:01.350Z,101665.40
2023-03-04T09:28:33.301Z,101665.40
2023-03-04T09:30:07.702Z,101663.00
2023-03-04T09:31:39.913Z,101669.60
2023-03-04T09:33:14.277Z,101667.00
2023-03-04T09:34:46.148Z,101660.00
2023-03-04T09:36:18.297Z,101664.00
2023-03-04T09:37:50.953Z,101664.20
2023-03-04T09:39:22.996Z,101665.00
2023-03-04T09:40:54.883Z,101667.00
2023-03-04T09:42:47.427Z,101664.20
2023-03-04T09:44:32.312Z,101665.00
2023-03-04T09:46:11.379Z,101662.00
2023-03-04T09:47:45.768Z,101663.20
2023-03-04T09:49:20.986Z,101666.60
2023-03-04T09:51:17.269Z,101670.80
2023-03-04T09:53:27.938Z,101663.60
2023-03-04T09:55:33.884Z,101663.60
2023-03-04T09:57:42.988Z,101659.60
2023-03-04T09:59:44.430Z,101661.80
2023-03-04T10:01:56.529Z,101660.40
2023-03-04T10:03:48.455Z,101661.80
2023-03-04T10:05:26.229Z,101661.40
2023-03-04T10:06:59.038Z,101661.60
2023-03-04T10:09:25.604Z,101656.40
2023-03-04T10:11:00.921Z,101656.80
2023-03-04T10:12:41.090Z,101657.40
2023-03-04T10:14:22.169Z,101654.20
2023-03-04T10:15:56.904Z,101658.60
2023-03-04T10:17:40.075Z,101657.60
2023-03-04T10:19:14.776Z,101659.20
2023-03-04T10:21:35.715Z,101654.80
2023-03-04T10:23:20.666Z,101652.00
2023-03-04T10:25:02.230Z,101650.20
2023-03-04T10:26:34.285Z,101643.40
2023-03-04T10:28:26.145Z,101644.60
2023-03-04T10:30:00.617Z,101641.80
2023-03-04T10:31:36.881Z,101641.40
2023-03-04T10:33:20.079Z,101645.60
2023-03-04T10:34:51.856Z,101638.00
2023-03-04T10:36:29.386Z,101636.00
2023-03-04T10:38:03.798Z,101637.60
2023-03-04T10:39:47.631Z,101638.20
2023-03-04T10:41:26.309Z,101639.60
2023-03-04T10:42:59.822Z,101636.00
2023-03-04T10:44:35.130Z,101640.60
2023-03-04T10:46:11.964Z,101641.60
2023-03-04T10:47:56.539Z,101641.00
2023-03-04T10:49:31.159Z,101636.00
2023-03-04T10:51:26.220Z,101644.20
2023-03-04T10:52:58.917Z,101638.80
2023-03-04T10:54:47.013Z,101645.40
2023-03-04T10:56:34.412Z,101644.80
2023-03-04T10:58:18.847Z,101644.20
2023-03-04T11:00:16.427Z,101644.40
2023-03-04T11:01:51.587Z,101647.80
2023-03-04T11:03:37.988Z,101643.80
2023-03-04T11:05:09.769Z,101637.40
2023-03-04T11:06:42.779Z,101637.60
2023-03-04T11:08:22.264Z,101633.80
2023-03-04T11:09:57.244Z,101637.40
2023-03-04T11:11:44.674Z,101636.60
2023-03-04T11:13:24.241Z,101630.60
2023-03-04T11:14:56.018Z,101629.80
2023-03-04T11:16:32.034Z,101623.40
2023-03-04T11:18:13.763Z,101630.20
2023-03-04T11:19:52.552Z,101628.40
2023-03-04T11:21:30.121Z,101626.00
2023-03-04T11:23:11.289Z,101625.20
2023-03-04T11:24:44.411Z,101626.40
2023-03-04T11:26:26.665Z,101621.80
2023-03-04T11:28:06.151Z,101621.40
2023-03-04T11:29:49.242Z,101620.40
2023-03-04T11:31:49.247Z,101620.80
2023-03-04T11:33:43.141Z,101620.60
2023-03-04T11:35:35.306Z,101613.60
2023-03-04T11:37:47.414Z,101612.00
2023-03-04T11:39:35.816Z,101608.00
2023-03-04T11:41:19.323Z,101593.80
2023-03-04T11:43:24.736Z,101599.40
2023-03-04T11:44:56.800Z,101593.20
2023-03-04T11:47:07.479Z,101597.20
2023-03-04T11:48:51.597Z,101603.20
2023-03-04T11:50:42.786Z,101597.40
2023-03-04T11:53:13.864Z,101591.00
2023-03-04T11:55:13.894Z,101585.20
2023-03-04T11:56:52.552Z,101586.80
2023-03-04T11:58:48.587Z,101583.40
2023-03-04T12:00:58.300Z,101582.60
2023-03-04T12:03:08.021Z,101580.20
2023-03-04T12:05:24.735Z,101577.00
2023-03-04T12:07:37.242Z,101577.20
2023-03-04T12:09:23.760Z,101573.80
2023-03-04T12:11:23.631Z,101568.60
2023-03-04T12:13:20.337Z,101568.00
2023-03-04T12:14:57.650Z,101567.00
2023-03-04T12:17:03.258Z,101567.40
2023-03-04T12:19:21.994Z,101564.00
2023-03-04T12:21:12.698Z,101564.00
2023-03-04T12:22:54.774Z,101567.00
2023-03-04T12:24:52.232Z,101561.00
2023-03-04T12:26:44.977Z,101557.20
2023-03-04T12:28:43.381Z,101552.40
2023-03-04T12:30:33.974Z,101544.80
2023-03-04T12:32:29.312Z,101554.80
2023-03-04T12:34:20.613Z,101549.00
2023-03-04T12:48:32.920Z,101537.60
2023-03-04T12:50:43.698Z,101534.20
2023-03-04T12:52:39.792Z,101535.40
2023-03-04T12:54:33.254Z,101532.60
2023-03-04T12:56:09.310Z,101532.00
2023-03-04T12:57:43.525Z,101524.60
2023-03-04T12:59:20.637Z,101518.40
2023-03-04T13:01:42.320Z,101517.40
2023-03-04T13:03:28.616Z,101519.20
2023-03-04T13:05:32.883Z,101518.00
2023-03-04T13:07:41.460Z,101515.20
2023-03-04T13:09:28.605Z,101517.80
2023-03-04T13:11:26.544Z,101523.80
2023-03-04T13:13:01.311Z,101519.40
2023-03-04T13:14:34.939Z,101523.20
2023-03-04T13:16:18.835Z,101520.00
2023-03-04T13:18:29.520Z,101517.80
2023-03-04T13:20:39.088Z,101516.20
2023-03-04T13:22:39.508Z,101510.60
2023-03-04T13:24:51.513Z,101507.80
2023-03-04T13:26:32.721Z,101516.80
2023-03-04T13:28:15.974Z,101512.80
2023-03-04T13:29:48.525Z,101514.20
2023-03-04T13:31:27.204Z,101507.40
2023-03-04T13:33:21.749Z,101507.00
2023-03-04T13:34:54.630Z,101504.60
2023-03-04T13:36:55.328Z,101500.00
2023-03-04T13:38:28.401Z,101492.00
2023-03-04T13:40:27.420Z,101501.80
2023-03-04T13:42:01.972Z,101485.60
2023-03-04T13:43:46.235Z,101483.40
2023-03-04T13:45:36.862Z,101481.40
2023-03-04T13:47:27.692Z,101478.80
2023-03-04T13:49:04.825Z,101488.20
2023-03-04T13:50:55.850Z,101481.60
2023-03-04T13:52:40.950Z,101485.80
2023-03-04T13:54:30.386Z,101479.60
2023-03-04T13:56:09.738Z,101477.20
2023-03-04T13:57:51.010Z,101476.00
2023-03-04T13:59:38.748Z,101470.20
2023-03-04T14:01:31.917Z,101469.40
2023-03-04T14:03:19.790Z,101473.80
2023-03-04T14:04:54.237Z,101474.20
2023-03-04T14:06:31.907Z,101476.20
2023-03-04T14:08:21.044Z,101466.80
2023-03-04T14:10:11.482Z,101470.40
2023-03-04T14:11:44.572Z,101469.20
2023-03-04T14:13:16.722Z,101470.20
2023-03-04T14:14:56.798Z,101467.80
2023-03-04T14:16:32.270Z,101459.60
2023-03-04T14:18:05.975Z,101460.40
2023-03-04T14:19:46.768Z,101460.60
2023-03-04T14:21:18.540Z,101454.20
2023-03-04T14:22:50.624Z,101451.40
2023-03-04T14:24:23.927Z,101450.80
2023-03-04T14:26:25.322Z,101449.00
2023-03-04T14:28:16.768Z,101451.40
2023-03-04T14:29:57.930Z,101454.40
2023-03-04T14:31:35.996Z,101450.60
2023-03-04T14:33:14.538Z,101449.40
2023-03-04T14:34:51.333Z,101445.60
2023-03-04T14:36:24.385Z,101442.40
2023-03-04T14:38:01.808Z,101442.20
2023-03-04T14:39:36.345Z,101438.20
2023-03-04T14:41:15.710Z,101435.20
2023-03-04T14:42:50.720Z,101439.40
2023-03-04T14:44:30.018Z,101439.80
2023-03-04T14:46:03.525Z,101435.40
2023-03-04T14:47:41.936Z,101427.40
2023-03-04T14:49:15.706Z,101430.00
2023-03-04T14:50:52.504Z,101423.80
2023-03-04T14:52:33.447Z,101426.20
2023-03-04T14:54:05.844Z,101427.80
2023-03-04T14:55:37.706Z,101429.00
2023-03-04T14:57:32.409Z,101424.60
2023-03-04T14:59:04.236Z,101426.80
2023-03-04T15:00:41.026Z,101419.00
2023-03-04T15:02:30.184Z,101423.20
2023-03-04T15:04:09.613Z,101420.00
2023-03-04T15:05:41.689Z,101423.00
2023-03-04T15:07:31.874Z,101427.60
2023-03-04T15:09:07.772Z,101417.20
2023-03-04T15:10:39.755Z,101417.00
2023-03-04T15:12:11.809Z,101417.20
2023-03-04T15:13:49.653Z,101415.00
2023-03-04T15:15:32.989Z,101415.00
2023-03-04T15:17:04.883Z,101418.40
2023-03-04T15:18:38.476Z,101412.00
2023-03-04T15:20:10.188Z,101413.40
2023-03-04T15:21:42.180Z,101413.60
2023-03-04T15:23:14.859Z,101413.20
2023-03-04T15:24:49.558Z,101413.20
2023-03-04T15:26:21.642Z,101406.20
2023-03-04T15:27:56.746Z,101411.80
2023-03-04T15:29:29.207Z,101411.60
2023-03-04T15:31:01.316Z,101408.80
2023-03-04T15:32:33.422Z,101405.40
2023-03-04T15:34:14.673Z,101407.00
2023-03-04T15:36:17.109Z,101399.20
2023-03-04T15:37:52.519Z,101404.80
2023-03-04T15:39:25.283Z,101403.40
2023-03-04T15:40:59.472Z,101407.00
2023-03-04T15:42:31.251Z,101406.40
2023-03-04T15:44:03.154Z,101399.40
2023-03-04T15:45:38.324Z,101398.40
2023-03-04T15:47:13.865Z,101406.80
2023-03-04T15:48:48.032Z,101402.60
2023-03-04T15:50:21.070Z,101403.20
2023-03-04T15:51:53.626Z,101405.40
2023-03-04T15:53:48.330Z,101405.00
2023-03-04T15:55:21.589Z,101400.00
2023-03-04T15:56:53.441Z,101405.00
2023-03-04T15:58:26.994Z,101403.20
2023-03-04T15:59:58.725Z,101406.20
2023-03-04T16:01:31.107Z,101406.20
2023-03-04T16:03:03.422Z,101400.20
2023-03-04T16:04:35.229Z,101399.00
2023-03-04T16:06:11.663Z,101398.20
2023-03-04T16:07:47.243Z,101396.60
2023-03-04T16:09:21.280Z,101397.20
2023-03-04T16:10:54.696Z,101394.40
2023-03-04T16:12:27.806Z,101395.40
2023-03-04T16:13:59.519Z,101393.20
2023-03-04T16:15:31.332Z,101399.00
2023-03-04T16:17:03.128Z,101404.00
2023-03-04T16:18:34.831Z,101396.80
2023-03-04T16:20:07.316Z,101396.60
2023-03-04T16:21:40.409Z,101395.60
2023-03-04T16:23:21.381Z,101391.60
2023-03-04T16:24:54.778Z,101394.80
2023-03-04T16:26:29.671Z,101391.60
2023-03-04T16:28:03.947Z,101388.00
2023-03-04T16:29:35.684Z,101393.00
2023-03-04T16:31:09.495Z,101393.00
2023-03-04T16:32:41.395Z,101394.40
2023-03-04T16:34:13.293Z,101393.00
2023-03-04T16:35:46.630Z,101397.00
2023-03-04T16:37:20.644Z,101396.80
2023-03-04T16:38:57.220Z,101388.60
2023-03-04T16:40:30.916Z,101393.40
2023-03-04T16:42:02.795Z,101394.80
2023-03-04T16:43:34.512Z,101395.80
2023-03-04T16:45:27.632Z,101398.60
2023-03-04T16:46:59.415Z,101397.40
2023-03-04T16:48:31.142Z,101399.40
2023-03-04T16:50:02.884Z,101397.20
2023-03-04T16:51:43.578Z,101401.00
2023-03-04T16:53:35.566Z,101400.60
2023-03-04T16:55:19.456Z,101400.20
2023-03-04T16:56:51.180Z,101403.20
2023-03-04T16:58:22.904Z,101398.60
2023-03-04T16:59:55.227Z,101402.20
2023-03-04T17:01:29.463Z,101403.80
2023-03-04T17:03:01.840Z,101404.40
2023-03-04T17:04:33.624Z,101407.40
2023-03-04T17:06:05.685Z,101405.80
2023-03-04T17:07:37.400Z,101404.80
2023-03-04T17:09:09.664Z,101406.40
2023-03-04T17:10:41.424Z,101408.20
2023-03-04T17:12:13.095Z,101401.80
2023-03-04T17:13:45.718Z,101404.60
2023-03-04T17:15:17.992Z,101412.40
2023-03-04T17:16:49.701Z,101413.20
2023-03-04T17:18:21.377Z,101412.40
2023-03-04T17:19:53.165Z,101411.00
2023-03-04T17:21:27.480Z,101409.80
2023-03-04T17:22:59.190Z,101405.20
2023-03-04T17:24:31.334Z,101409.20
2023-03-04T17:26:04.323Z,101410.40
2023-03-04T17:27:36.644Z,101412.80
2023-03-04T17:29:09.842Z,101411.60
2023-03-04T17:30:41.585Z,101406.00
2023-03-04T17:32:13.369Z,101410.80
2023-03-04T17:33:45.401Z,101416.40
2023-03-04T17:35:17.168Z,101415.60
2023-03-04T17:36:48.967Z,101417.40
2023-03-04T17:38:20.802Z,101420.60
2023-03-04T17:39:52.989Z,101415.60
2023-03-04T17:41:26.186Z,101412.20
2023-03-04T17:42:57.919Z,101415.20
2023-03-04T17:44:31.236Z,101419.80
2023-03-04T17:46:09.270Z,101416.00
2023-03-04T17:47:41.069Z,101418.60
2023-03-04T17:49:12.779Z,101424.60
2023-03-04T17:50:53.615Z,101425.60
2023-03-04T17:52:25.323Z,101419.80
2023-03-04T17:53:57.103Z,101422.20
2023-03-04T17:55:28.852Z,101426.00
2023-03-04T17:57:00.615Z,101425.60
2023-03-04T17:58:35.322Z,101421.40
2023-03-04T18:00:08.149Z,101426.00
2023-03-04T18:01:39.893Z,101426.60
2023-03-04T18:03:13.306Z,101421.40
2023-03-04T18:04:47.608Z,101429.80
2023-03-04T18:06:20.246Z,101426.20
2023-03-04T18:07:52.000Z,101423.40
2023-03-04T18:09:23.815Z,101425.20
2023-03-04T18:10:55.619Z,101427.40
2023-03-04T18:12:27.565Z,101424.40
2023-03-04T18:13:59.624Z,101426.20
2023-03-04T18:15:31.430Z,101421.20
2023-03-04T18:17:03.378Z,101424.40
2023-03-04T18:18:38.236Z,101423.20
2023-03-04T18:20:11.245Z,101424.20
2023-03-04T18:21:43.795Z,101424.40
2023-03-04T18:23:15.615Z,101427.00
2023-03-04T18:24:47.450Z,101427.80
2023-03-04T18:26:24.195Z,101425.80
2023-03-04T18:27:55.930Z,101425.60
2023-03-04T18:29:29.532Z,101422.00
2023-03-04T18:31:01.454Z,101422.60
2023-03-04T18:32:49.355Z,101426.00
2023-03-04T18:34:23.264Z,101423.20
2023-03-04T18:36:05.225Z,101415.20
2023-03-04T18:37:37.059Z,101417.80